sensor_id;sensor_type;location;lat;lon;timestamp;P1;durP1;ratioP1;P2;durP2;ratioP2
63398;SDS011;49533;-34.520;150.798;2023-11-22T00:01:23;3.83;;;1.40;;
63398;SDS011;49533;-34.520;150.798;2023-11-22T00:03:51;2.22;;;1.13;;
63398;SDS011;49533;-34.520;150.798;2023-11-22T00:06:18;1.88;;;0.95;;
63398;SDS011;49533;-34.520;150.798;2023-11-22T00:08:48;2.38;;;0.88;;
63398;SDS011;49533;-34.520;150.798;2023-11-22T00:11:15;1.40;;;0.88;;
63398;SDS011;49533;-34.520;150.798;2023-11-22T00:13:42;1.67;;;0.82;;
63398;SDS011;49533;-34.520;150.798;2023-11-22T00:16:09;1.25;;;0.90;;
63398;SDS011;49533;-34.520;150.798;2023-11-22T00:18:37;1.33;;;0.93;;
63398;SDS011;49533;-34.520;150.798;2023-11-22T00:21:04;2.67;;;1.52;;
63398;SDS011;49533;-34.520;150.798;2023-11-22T00:23:40;3.08;;;1.08;;
63398;SDS011;49533;-34.520;150.798;2023-11-22T00:26:08;1.60;;;1.20;;
63398;SDS011;49533;-34.520;150.798;2023-11-22T00:28:36;1.85;;;0.90;;
63398;SDS011;49533;-34.520;150.798;2023-11-22T00:31:03;3.25;;;1.27;;
63398;SDS011;49533;-34.520;150.798;2023-11-22T00:33:30;2.15;;;1.30;;
63398;SDS011;49533;-34.520;150.798;2023-11-22T00:35:58;1.83;;;1.20;;
63398;SDS011;49533;-34.520;150.798;2023-11-22T00:38:25;2.55;;;1.40;;
63398;SDS011;49533;-34.520;150.798;2023-11-22T00:40:52;2.05;;;1.35;;
63398;SDS011;49533;-34.520;150.798;2023-11-22T00:43:19;1.38;;;1.13;;
63398;SDS011;49533;-34.520;150.798;2023-11-22T00:45:46;1.80;;;1.70;;
63398;SDS011;49533;-34.520;150.798;2023-11-22T00:48:13;1.65;;;1.30;;
63398;SDS011;49533;-34.520;150.798;2023-11-22T00:50:40;2.28;;;1.58;;
63398;SDS011;49533;-34.520;150.798;2023-11-22T00:53:07;1.88;;;1.63;;
63398;SDS011;49533;-34.520;150.798;2023-11-22T00:55:35;2.75;;;1.50;;
63398;SDS011;49533;-34.520;150.798;2023-11-22T00:58:02;2.80;;;1.73;;
63398;SDS011;49533;-34.520;150.798;2023-11-22T01:00:30;1.80;;;1.67;;
63398;SDS011;49533;-34.520;150.798;2023-11-22T01:02:57;4.22;;;2.08;;
63398;SDS011;49533;-34.520;150.798;2023-11-22T01:05:24;3.03;;;2.15;;
63398;SDS011;49533;-34.520;150.798;2023-11-22T01:07:51;3.03;;;1.92;;
63398;SDS011;49533;-34.520;150.798;2023-11-22T01:10:18;2.42;;;1.75;;
63398;SDS011;49533;-34.520;150.798;2023-11-22T01:12:45;2.30;;;2.10;;
63398;SDS011;49533;-34.520;150.798;2023-11-22T01:15:13;4.97;;;2.60;;
63398;SDS011;49533;-34.520;150.798;2023-11-22T01:17:40;5.10;;;2.80;;
63398;SDS011;49533;-34.520;150.798;2023-11-22T01:20:08;3.30;;;2.47;;
63398;SDS011;49533;-34.520;150.798;2023-11-22T01:22:39;2.97;;;2.72;;
63398;SDS011;49533;-34.520;150.798;2023-11-22T01:25:08;5.55;;;2.97;;
63398;SDS011;49533;-34.520;150.798;2023-11-22T01:27:35;4.68;;;2.75;;
63398;SDS011;49533;-34.520;150.798;2023-11-22T01:30:02;3.35;;;2.58;;
63398;SDS011;49533;-34.520;150.798;2023-11-22T01:32:33;5.53;;;2.60;;
63398;SDS011;49533;-34.520;150.798;2023-11-22T01:35:01;4.18;;;2.60;;
63398;SDS011;49533;-34.520;150.798;2023-11-22T01:37:29;3.83;;;2.63;;
63398;SDS011;49533;-34.520;150.798;2023-11-22T01:39:56;5.55;;;3.35;;
63398;SDS011;49533;-34.520;150.798;2023-11-22T01:42:23;3.47;;;2.65;;
63398;SDS011;49533;-34.520;150.798;2023-11-22T01:44:51;2.67;;;2.42;;
63398;SDS011;49533;-34.520;150.798;2023-11-22T01:47:21;2.53;;;2.33;;
63398;SDS011;49533;-34.520;150.798;2023-11-22T01:49:48;4.38;;;2.75;;
63398;SDS011;49533;-34.520;150.798;2023-11-22T01:52:15;4.78;;;3.50;;
63398;SDS011;49533;-34.520;150.798;2023-11-22T01:54:43;7.28;;;3.58;;
63398;SDS011;49533;-34.520;150.798;2023-11-22T01:57:13;6.57;;;3.78;;
63398;SDS011;49533;-34.520;150.798;2023-11-22T01:59:41;3.67;;;3.33;;
63398;SDS011;49533;-34.520;150.798;2023-11-22T02:02:09;3.40;;;3.10;;
63398;SDS011;49533;-34.520;150.798;2023-11-22T02:04:36;3.40;;;3.10;;
63398;SDS011;49533;-34.520;150.798;2023-11-22T02:07:03;4.32;;;3.33;;
63398;SDS011;49533;-34.520;150.798;2023-11-22T02:09:31;3.05;;;2.70;;
63398;SDS011;49533;-34.520;150.798;2023-11-22T02:11:58;5.38;;;3.63;;
63398;SDS011;49533;-34.520;150.798;2023-11-22T02:14:25;3.78;;;3.45;;
63398;SDS011;49533;-34.520;150.798;2023-11-22T02:16:58;4.85;;;3.45;;
63398;SDS011;49533;-34.520;150.798;2023-11-22T02:19:26;5.45;;;3.45;;
63398;SDS011;49533;-34.520;150.798;2023-11-22T02:21:55;3.90;;;3.20;;
63398;SDS011;49533;-34.520;150.798;2023-11-22T02:24:22;6.30;;;3.47;;
63398;SDS011;49533;-34.520;150.798;2023-11-22T02:26:50;3.80;;;3.50;;
63398;SDS011;49533;-34.520;150.798;2023-11-22T02:29:18;5.35;;;4.03;;
63398;SDS011;49533;-34.520;150.798;2023-11-22T02:31:46;5.95;;;3.22;;
63398;SDS011;49533;-34.520;150.798;2023-11-22T02:34:17;4.63;;;3.72;;
63398;SDS011;49533;-34.520;150.798;2023-11-22T02:36:46;4.45;;;3.67;;
63398;SDS011;49533;-34.520;150.798;2023-11-22T02:39:15;6.18;;;3.72;;
63398;SDS011;49533;-34.520;150.798;2023-11-22T02:41:43;4.25;;;3.55;;
63398;SDS011;49533;-34.520;150.798;2023-11-22T02:59:17;4.10;;;3.42;;
63398;SDS011;49533;-34.520;150.798;2023-11-22T03:02:28;5.07;;;3.88;;
63398;SDS011;49533;-34.520;150.798;2023-11-22T03:08:21;7.53;;;4.10;;
63398;SDS011;49533;-34.520;150.798;2023-11-22T03:11:18;5.35;;;3.92;;
63398;SDS011;49533;-34.520;150.798;2023-11-22T03:13:55;5.28;;;3.97;;
63398;SDS011;49533;-34.520;150.798;2023-11-22T03:16:32;5.13;;;3.85;;
63398;SDS011;49533;-34.520;150.798;2023-11-22T03:19:04;5.00;;;4.15;;
63398;SDS011;49533;-34.520;150.798;2023-11-22T03:21:47;4.35;;;3.53;;
63398;SDS011;49533;-34.520;150.798;2023-11-22T03:30:26;3.65;;;3.28;;
63398;SDS011;49533;-34.520;150.798;2023-11-22T03:33:26;5.10;;;3.50;;
63398;SDS011;49533;-34.520;150.798;2023-11-22T03:36:04;5.85;;;3.88;;
63398;SDS011;49533;-34.520;150.798;2023-11-22T03:45:32;6.88;;;3.45;;
63398;SDS011;49533;-34.520;150.798;2023-11-22T03:51:39;6.25;;;4.07;;
63398;SDS011;49533;-34.520;150.798;2023-11-22T03:54:15;8.63;;;4.70;;
63398;SDS011;49533;-34.520;150.798;2023-11-22T03:57:00;9.15;;;5.93;;
63398;SDS011;49533;-34.520;150.798;2023-11-22T04:00:02;9.63;;;5.50;;
63398;SDS011;49533;-34.520;150.798;2023-11-22T04:02:46;9.50;;;5.85;;
63398;SDS011;49533;-34.520;150.798;2023-11-22T04:05:28;8.35;;;5.35;;
63398;SDS011;49533;-34.520;150.798;2023-11-22T04:08:09;6.82;;;5.10;;
63398;SDS011;49533;-34.520;150.798;2023-11-22T04:11:03;9.73;;;4.55;;
63398;SDS011;49533;-34.520;150.798;2023-11-22T04:13:48;7.40;;;4.55;;
63398;SDS011;49533;-34.520;150.798;2023-11-22T04:16:22;9.48;;;4.05;;
63398;SDS011;49533;-34.520;150.798;2023-11-22T04:18:51;8.00;;;3.65;;
63398;SDS011;49533;-34.520;150.798;2023-11-22T04:21:18;4.68;;;3.00;;
63398;SDS011;49533;-34.520;150.798;2023-11-22T04:23:48;4.00;;;3.22;;
63398;SDS011;49533;-34.520;150.798;2023-11-22T04:29:33;5.07;;;3.20;;
63398;SDS011;49533;-34.520;150.798;2023-11-22T04:32:04;6.43;;;3.30;;
63398;SDS011;49533;-34.520;150.798;2023-11-22T04:34:32;7.57;;;3.22;;
63398;SDS011;49533;-34.520;150.798;2023-11-22T04:39:52;7.45;;;3.10;;
63398;SDS011;49533;-34.520;150.798;2023-11-22T04:42:22;5.22;;;3.13;;
63398;SDS011;49533;-34.520;150.798;2023-11-22T04:44:49;5.60;;;3.50;;
63398;SDS011;49533;-34.520;150.798;2023-11-22T04:47:16;9.45;;;3.10;;
63398;SDS011;49533;-34.520;150.798;2023-11-22T04:49:43;6.53;;;3.40;;
63398;SDS011;49533;-34.520;150.798;2023-11-22T04:52:10;9.40;;;3.83;;
63398;SDS011;49533;-34.520;150.798;2023-11-22T04:54:37;9.02;;;3.40;;
63398;SDS011;49533;-34.520;150.798;2023-11-22T04:57:05;9.27;;;3.60;;
63398;SDS011;49533;-34.520;150.798;2023-11-22T04:59:32;7.32;;;3.67;;
63398;SDS011;49533;-34.520;150.798;2023-11-22T05:01:59;8.23;;;3.40;;
63398;SDS011;49533;-34.520;150.798;2023-11-22T05:04:26;7.82;;;3.58;;
63398;SDS011;49533;-34.520;150.798;2023-11-22T05:06:54;10.70;;;3.85;;
63398;SDS011;49533;-34.520;150.798;2023-11-22T05:09:21;7.38;;;3.65;;
63398;SDS011;49533;-34.520;150.798;2023-11-22T05:11:48;7.80;;;3.25;;
63398;SDS011;49533;-34.520;150.798;2023-11-22T05:14:15;6.70;;;3.70;;
63398;SDS011;49533;-34.520;150.798;2023-11-22T05:16:42;8.05;;;3.20;;
63398;SDS011;49533;-34.520;150.798;2023-11-22T05:19:09;4.47;;;3.28;;
63398;SDS011;49533;-34.520;150.798;2023-11-22T05:21:36;5.00;;;3.17;;
63398;SDS011;49533;-34.520;150.798;2023-11-22T05:24:03;5.00;;;3.30;;
63398;SDS011;49533;-34.520;150.798;2023-11-22T05:26:31;5.05;;;3.15;;
63398;SDS011;49533;-34.520;150.798;2023-11-22T05:28:58;6.40;;;3.00;;
63398;SDS011;49533;-34.520;150.798;2023-11-22T05:31:25;10.10;;;3.72;;
63398;SDS011;49533;-34.520;150.798;2023-11-22T05:33:52;8.10;;;3.60;;
63398;SDS011;49533;-34.520;150.798;2023-11-22T05:36:19;5.78;;;3.67;;
63398;SDS011;49533;-34.520;150.798;2023-11-22T05:38:46;5.15;;;3.30;;
63398;SDS011;49533;-34.520;150.798;2023-11-22T05:41:13;6.63;;;4.10;;
63398;SDS011;49533;-34.520;150.798;2023-11-22T05:43:41;8.73;;;3.88;;
63398;SDS011;49533;-34.520;150.798;2023-11-22T05:46:08;8.00;;;3.75;;
63398;SDS011;49533;-34.520;150.798;2023-11-22T05:48:38;21.88;;;4.57;;
63398;SDS011;49533;-34.520;150.798;2023-11-22T05:51:05;9.85;;;4.32;;
63398;SDS011;49533;-34.520;150.798;2023-11-22T05:53:34;6.25;;;3.58;;
63398;SDS011;49533;-34.520;150.798;2023-11-22T05:56:01;8.35;;;4.00;;
63398;SDS011;49533;-34.520;150.798;2023-11-22T05:58:29;7.65;;;3.97;;
63398;SDS011;49533;-34.520;150.798;2023-11-22T06:00:56;7.05;;;3.88;;
63398;SDS011;49533;-34.520;150.798;2023-11-22T06:03:23;7.00;;;3.90;;
63398;SDS011;49533;-34.520;150.798;2023-11-22T06:05:50;5.88;;;3.88;;
63398;SDS011;49533;-34.520;150.798;2023-11-22T06:08:17;5.80;;;3.95;;
63398;SDS011;49533;-34.520;150.798;2023-11-22T06:10:44;7.00;;;4.07;;
63398;SDS011;49533;-34.520;150.798;2023-11-22T06:13:12;8.75;;;4.57;;
63398;SDS011;49533;-34.520;150.798;2023-11-22T06:15:40;7.82;;;4.15;;
63398;SDS011;49533;-34.520;150.798;2023-11-22T06:18:08;7.13;;;4.40;;
63398;SDS011;49533;-34.520;150.798;2023-11-22T06:20:35;7.88;;;4.00;;
63398;SDS011;49533;-34.520;150.798;2023-11-22T06:23:02;7.68;;;4.18;;
63398;SDS011;49533;-34.520;150.798;2023-11-22T06:25:29;5.68;;;4.05;;
63398;SDS011;49533;-34.520;150.798;2023-11-22T06:27:56;11.18;;;4.68;;
63398;SDS011;49533;-34.520;150.798;2023-11-22T06:30:23;6.07;;;4.00;;
63398;SDS011;49533;-34.520;150.798;2023-11-22T06:32:51;7.32;;;4.18;;
63398;SDS011;49533;-34.520;150.798;2023-11-22T06:35:19;7.22;;;4.00;;
63398;SDS011;49533;-34.520;150.798;2023-11-22T06:37:46;6.20;;;4.00;;
63398;SDS011;49533;-34.520;150.798;2023-11-22T06:40:13;7.38;;;3.80;;
63398;SDS011;49533;-34.520;150.798;2023-11-22T06:42:42;5.82;;;3.60;;
63398;SDS011;49533;-34.520;150.798;2023-11-22T06:45:09;8.20;;;3.70;;
63398;SDS011;49533;-34.520;150.798;2023-11-22T06:47:38;6.32;;;4.05;;
63398;SDS011;49533;-34.520;150.798;2023-11-22T06:50:07;6.45;;;3.88;;
63398;SDS011;49533;-34.520;150.798;2023-11-22T06:52:35;5.85;;;3.85;;
63398;SDS011;49533;-34.520;150.798;2023-11-22T06:55:04;5.45;;;3.97;;
63398;SDS011;49533;-34.520;150.798;2023-11-22T06:57:35;5.00;;;3.83;;
63398;SDS011;49533;-34.520;150.798;2023-11-22T07:00:03;5.32;;;3.70;;
63398;SDS011;49533;-34.520;150.798;2023-11-22T07:02:32;8.10;;;4.32;;
63398;SDS011;49533;-34.520;150.798;2023-11-22T07:05:01;5.20;;;3.80;;
63398;SDS011;49533;-34.520;150.798;2023-11-22T07:07:35;7.32;;;4.10;;
63398;SDS011;49533;-34.520;150.798;2023-11-22T07:10:02;5.55;;;3.97;;
63398;SDS011;49533;-34.520;150.798;2023-11-22T07:12:33;6.68;;;4.15;;
63398;SDS011;49533;-34.520;150.798;2023-11-22T07:15:01;5.10;;;3.70;;
63398;SDS011;49533;-34.520;150.798;2023-11-22T07:17:28;8.18;;;4.05;;
63398;SDS011;49533;-34.520;150.798;2023-11-22T07:19:56;7.97;;;4.60;;
63398;SDS011;49533;-34.520;150.798;2023-11-22T07:22:23;7.45;;;4.00;;
63398;SDS011;49533;-34.520;150.798;2023-11-22T07:24:52;5.72;;;3.60;;
63398;SDS011;49533;-34.520;150.798;2023-11-22T07:27:25;10.18;;;4.03;;
63398;SDS011;49533;-34.520;150.798;2023-11-22T07:29:52;6.78;;;4.32;;
63398;SDS011;49533;-34.520;150.798;2023-11-22T07:32:19;6.55;;;4.03;;
63398;SDS011;49533;-34.520;150.798;2023-11-22T07:34:50;7.25;;;3.60;;
63398;SDS011;49533;-34.520;150.798;2023-11-22T07:37:21;7.60;;;4.00;;
63398;SDS011;49533;-34.520;150.798;2023-11-22T07:39:49;8.35;;;4.40;;
63398;SDS011;49533;-34.520;150.798;2023-11-22T07:42:18;6.18;;;4.10;;
63398;SDS011;49533;-34.520;150.798;2023-11-22T07:44:47;6.65;;;4.20;;
63398;SDS011;49533;-34.520;150.798;2023-11-22T07:47:22;10.95;;;4.65;;
63398;SDS011;49533;-34.520;150.798;2023-11-22T07:49:50;7.80;;;5.18;;
63398;SDS011;49533;-34.520;150.798;2023-11-22T07:52:17;9.85;;;5.68;;
63398;SDS011;49533;-34.520;150.798;2023-11-22T07:54:44;12.02;;;5.18;;
63398;SDS011;49533;-34.520;150.798;2023-11-22T07:57:12;10.50;;;5.38;;
63398;SDS011;49533;-34.520;150.798;2023-11-22T07:59:40;8.10;;;4.93;;
63398;SDS011;49533;-34.520;150.798;2023-11-22T08:02:07;10.45;;;4.80;;
63398;SDS011;49533;-34.520;150.798;2023-11-22T08:04:37;7.47;;;4.63;;
63398;SDS011;49533;-34.520;150.798;2023-11-22T08:07:04;8.48;;;4.88;;
63398;SDS011;49533;-34.520;150.798;2023-11-22T08:09:31;8.57;;;4.55;;
63398;SDS011;49533;-34.520;150.798;2023-11-22T08:11:58;13.45;;;4.60;;
63398;SDS011;49533;-34.520;150.798;2023-11-22T08:14:28;9.07;;;4.45;;
63398;SDS011;49533;-34.520;150.798;2023-11-22T08:16:56;9.18;;;5.00;;
63398;SDS011;49533;-34.520;150.798;2023-11-22T08:19:23;9.27;;;4.38;;
63398;SDS011;49533;-34.520;150.798;2023-11-22T08:21:50;6.05;;;4.13;;
63398;SDS011;49533;-34.520;150.798;2023-11-22T08:24:17;7.93;;;4.47;;
63398;SDS011;49533;-34.520;150.798;2023-11-22T08:26:44;9.23;;;4.63;;
63398;SDS011;49533;-34.520;150.798;2023-11-22T08:29:12;8.73;;;3.90;;
63398;SDS011;49533;-34.520;150.798;2023-11-22T08:31:44;5.65;;;4.18;;
63398;SDS011;49533;-34.520;150.798;2023-11-22T08:34:12;7.13;;;4.07;;
63398;SDS011;49533;-34.520;150.798;2023-11-22T08:36:41;5.15;;;3.67;;
63398;SDS011;49533;-34.520;150.798;2023-11-22T08:39:11;5.30;;;3.83;;
63398;SDS011;49533;-34.520;150.798;2023-11-22T08:41:38;6.22;;;3.80;;
63398;SDS011;49533;-34.520;150.798;2023-11-22T08:44:05;4.38;;;3.33;;
63398;SDS011;49533;-34.520;150.798;2023-11-22T08:46:32;4.75;;;3.42;;
63398;SDS011;49533;-34.520;150.798;2023-11-22T08:49:00;4.38;;;3.17;;
63398;SDS011;49533;-34.520;150.798;2023-11-22T08:51:28;4.68;;;3.40;;
63398;SDS011;49533;-34.520;150.798;2023-11-22T08:53:55;4.05;;;3.13;;
63398;SDS011;49533;-34.520;150.798;2023-11-22T08:56:22;3.13;;;2.80;;
63398;SDS011;49533;-34.520;150.798;2023-11-22T08:58:50;3.42;;;3.05;;
63398;SDS011;49533;-34.520;150.798;2023-11-22T09:01:17;4.38;;;3.03;;
63398;SDS011;49533;-34.520;150.798;2023-11-22T09:03:44;4.03;;;3.10;;
63398;SDS011;49533;-34.520;150.798;2023-11-22T09:06:11;4.45;;;3.00;;
63398;SDS011;49533;-34.520;150.798;2023-11-22T09:08:39;5.43;;;3.03;;
63398;SDS011;49533;-34.520;150.798;2023-11-22T09:11:08;3.85;;;3.17;;
63398;SDS011;49533;-34.520;150.798;2023-11-22T09:13:35;3.92;;;3.10;;
63398;SDS011;49533;-34.520;150.798;2023-11-22T09:16:03;4.72;;;2.92;;
63398;SDS011;49533;-34.520;150.798;2023-11-22T09:18:31;3.53;;;2.60;;
63398;SDS011;49533;-34.520;150.798;2023-11-22T09:20:58;4.30;;;2.95;;
63398;SDS011;49533;-34.520;150.798;2023-11-22T09:23:35;3.17;;;2.58;;
63398;SDS011;49533;-34.520;150.798;2023-11-22T09:26:14;4.25;;;2.47;;
63398;SDS011;49533;-34.520;150.798;2023-11-22T09:31:52;5.28;;;3.00;;
63398;SDS011;49533;-34.520;150.798;2023-11-22T09:34:27;3.88;;;2.45;;
63398;SDS011;49533;-34.520;150.798;2023-11-22T09:36:55;5.15;;;2.58;;
63398;SDS011;49533;-34.520;150.798;2023-11-22T09:39:23;2.78;;;2.58;;
63398;SDS011;49533;-34.520;150.798;2023-11-22T09:41:50;4.55;;;2.40;;
63398;SDS011;49533;-34.520;150.798;2023-11-22T09:44:41;3.10;;;2.80;;
63398;SDS011;49533;-34.520;150.798;2023-11-22T09:47:08;3.97;;;2.63;;
63398;SDS011;49533;-34.520;150.798;2023-11-22T09:49:36;5.18;;;2.58;;
63398;SDS011;49533;-34.520;150.798;2023-11-22T09:52:11;3.72;;;3.10;;
63398;SDS011;49533;-34.520;150.798;2023-11-22T09:54:58;3.03;;;2.70;;
63398;SDS011;49533;-34.520;150.798;2023-11-22T09:57:36;3.22;;;2.58;;
63398;SDS011;49533;-34.520;150.798;2023-11-22T10:00:06;3.33;;;2.38;;
63398;SDS011;49533;-34.520;150.798;2023-11-22T10:03:42;3.55;;;2.30;;
63398;SDS011;49533;-34.520;150.798;2023-11-22T10:06:28;3.60;;;2.50;;
63398;SDS011;49533;-34.520;150.798;2023-11-22T10:09:40;4.05;;;2.70;;
63398;SDS011;49533;-34.520;150.798;2023-11-22T10:14:41;5.05;;;2.50;;
63398;SDS011;49533;-34.520;150.798;2023-11-22T10:17:08;3.38;;;2.42;;
63398;SDS011;49533;-34.520;150.798;2023-11-22T10:19:35;3.40;;;2.33;;
63398;SDS011;49533;-34.520;150.798;2023-11-22T10:22:03;3.53;;;2.42;;
63398;SDS011;49533;-34.520;150.798;2023-11-22T10:24:32;2.35;;;2.08;;
63398;SDS011;49533;-34.520;150.798;2023-11-22T10:27:03;4.15;;;2.67;;
63398;SDS011;49533;-34.520;150.798;2023-11-22T10:29:33;3.50;;;2.22;;
63398;SDS011;49533;-34.520;150.798;2023-11-22T10:32:01;3.42;;;2.50;;
63398;SDS011;49533;-34.520;150.798;2023-11-22T10:34:30;3.67;;;2.30;;
63398;SDS011;49533;-34.520;150.798;2023-11-22T10:36:57;3.53;;;2.08;;
63398;SDS011;49533;-34.520;150.798;2023-11-22T10:39:24;2.40;;;1.75;;
63398;SDS011;49533;-34.520;150.798;2023-11-22T10:41:53;2.97;;;2.60;;
63398;SDS011;49533;-34.520;150.798;2023-11-22T10:44:20;4.20;;;2.33;;
63398;SDS011;49533;-34.520;150.798;2023-11-22T10:46:48;3.38;;;2.15;;
63398;SDS011;49533;-34.520;150.798;2023-11-22T10:49:16;3.33;;;1.95;;
63398;SDS011;49533;-34.520;150.798;2023-11-22T10:51:44;2.25;;;2.05;;
63398;SDS011;49533;-34.520;150.798;2023-11-22T10:54:16;2.28;;;2.05;;
63398;SDS011;49533;-34.520;150.798;2023-11-22T10:56:45;2.42;;;2.15;;
63398;SDS011;49533;-34.520;150.798;2023-11-22T10:59:18;1.77;;;1.67;;
63398;SDS011;49533;-34.520;150.798;2023-11-22T11:01:49;2.35;;;2.00;;
63398;SDS011;49533;-34.520;150.798;2023-11-22T11:04:29;4.60;;;2.13;;
63398;SDS011;49533;-34.520;150.798;2023-11-22T11:07:06;2.88;;;2.58;;
63398;SDS011;49533;-34.520;150.798;2023-11-22T11:09:41;4.38;;;2.38;;
63398;SDS011;49533;-34.520;150.798;2023-11-22T11:12:10;3.30;;;2.13;;
63398;SDS011;49533;-34.520;150.798;2023-11-22T11:14:37;2.20;;;2.00;;
63398;SDS011;49533;-34.520;150.798;2023-11-22T11:17:05;2.45;;;2.25;;
63398;SDS011;49533;-34.520;150.798;2023-11-22T11:19:34;2.95;;;2.40;;
63398;SDS011;49533;-34.520;150.798;2023-11-22T11:22:01;2.20;;;1.95;;
63398;SDS011;49533;-34.520;150.798;2023-11-22T11:24:38;2.08;;;1.95;;
63398;SDS011;49533;-34.520;150.798;2023-11-22T11:27:09;3.10;;;2.08;;
63398;SDS011;49533;-34.520;150.798;2023-11-22T11:29:37;2.92;;;2.13;;
63398;SDS011;49533;-34.520;150.798;2023-11-22T11:32:39;2.25;;;1.95;;
63398;SDS011;49533;-34.520;150.798;2023-11-22T11:35:00;5.07;;;2.55;;
63398;SDS011;49533;-34.520;150.798;2023-11-22T11:37:32;2.58;;;1.90;;
63398;SDS011;49533;-34.520;150.798;2023-11-22T11:39:59;3.75;;;2.40;;
63398;SDS011;49533;-34.520;150.798;2023-11-22T11:42:26;4.50;;;2.15;;
63398;SDS011;49533;-34.520;150.798;2023-11-22T11:47:32;3.40;;;1.92;;
63398;SDS011;49533;-34.520;150.798;2023-11-22T11:50:00;4.03;;;2.38;;
63398;SDS011;49533;-34.520;150.798;2023-11-22T11:52:28;2.80;;;1.92;;
63398;SDS011;49533;-34.520;150.798;2023-11-22T11:54:56;3.95;;;2.30;;
63398;SDS011;49533;-34.520;150.798;2023-11-22T11:57:23;3.88;;;2.40;;
63398;SDS011;49533;-34.520;150.798;2023-11-22T11:59:50;2.55;;;2.10;;
63398;SDS011;49533;-34.520;150.798;2023-11-22T12:02:21;3.97;;;2.58;;
63398;SDS011;49533;-34.520;150.798;2023-11-22T12:04:48;3.75;;;2.30;;
63398;SDS011;49533;-34.520;150.798;2023-11-22T12:07:15;3.35;;;2.30;;
63398;SDS011;49533;-34.520;150.798;2023-11-22T12:09:42;3.03;;;2.10;;
63398;SDS011;49533;-34.520;150.798;2023-11-22T12:12:12;3.50;;;2.40;;
63398;SDS011;49533;-34.520;150.798;2023-11-22T12:14:39;3.70;;;2.10;;
63398;SDS011;49533;-34.520;150.798;2023-11-22T12:17:06;3.15;;;2.53;;
63398;SDS011;49533;-34.520;150.798;2023-11-22T12:19:33;2.30;;;2.13;;
63398;SDS011;49533;-34.520;150.798;2023-11-22T12:22:00;2.58;;;2.05;;
63398;SDS011;49533;-34.520;150.798;2023-11-22T12:24:28;2.70;;;2.00;;
63398;SDS011;49533;-34.520;150.798;2023-11-22T12:26:55;3.17;;;2.40;;
63398;SDS011;49533;-34.520;150.798;2023-11-22T12:29:23;2.30;;;2.13;;
63398;SDS011;49533;-34.520;150.798;2023-11-22T12:31:51;2.67;;;2.40;;
63398;SDS011;49533;-34.520;150.798;2023-11-22T12:34:22;3.60;;;2.55;;
63398;SDS011;49533;-34.520;150.798;2023-11-22T12:36:52;3.22;;;2.40;;
63398;SDS011;49533;-34.520;150.798;2023-11-22T12:39:19;2.42;;;2.22;;
63398;SDS011;49533;-34.520;150.798;2023-11-22T12:41:47;3.28;;;2.55;;
63398;SDS011;49533;-34.520;150.798;2023-11-22T12:44:16;3.55;;;2.67;;
63398;SDS011;49533;-34.520;150.798;2023-11-22T12:49:25;3.05;;;2.50;;
63398;SDS011;49533;-34.520;150.798;2023-11-22T12:51:53;2.45;;;2.10;;
63398;SDS011;49533;-34.520;150.798;2023-11-22T12:54:21;2.95;;;2.45;;
63398;SDS011;49533;-34.520;150.798;2023-11-22T12:56:51;3.85;;;2.30;;
63398;SDS011;49533;-34.520;150.798;2023-11-22T12:59:25;2.28;;;2.05;;
63398;SDS011;49533;-34.520;150.798;2023-11-22T13:02:01;2.63;;;2.33;;
63398;SDS011;49533;-34.520;150.798;2023-11-22T13:04:28;3.45;;;2.42;;
63398;SDS011;49533;-34.520;150.798;2023-11-22T13:06:56;3.67;;;2.50;;
63398;SDS011;49533;-34.520;150.798;2023-11-22T13:09:25;1.98;;;1.88;;
63398;SDS011;49533;-34.520;150.798;2023-11-22T13:11:53;3.42;;;2.55;;
63398;SDS011;49533;-34.520;150.798;2023-11-22T13:14:21;2.95;;;2.67;;
63398;SDS011;49533;-34.520;150.798;2023-11-22T13:16:48;3.17;;;2.30;;
63398;SDS011;49533;-34.520;150.798;2023-11-22T13:19:15;3.60;;;2.45;;
63398;SDS011;49533;-34.520;150.798;2023-11-22T13:21:42;2.60;;;2.40;;
63398;SDS011;49533;-34.520;150.798;2023-11-22T13:24:10;3.40;;;2.50;;
63398;SDS011;49533;-34.520;150.798;2023-11-22T13:26:39;3.42;;;2.53;;
63398;SDS011;49533;-34.520;150.798;2023-11-22T13:29:06;3.00;;;2.50;;
63398;SDS011;49533;-34.520;150.798;2023-11-22T13:31:33;2.95;;;2.38;;
63398;SDS011;49533;-34.520;150.798;2023-11-22T13:34:02;3.53;;;2.55;;
63398;SDS011;49533;-34.520;150.798;2023-11-22T13:36:31;2.78;;;2.45;;
63398;SDS011;49533;-34.520;150.798;2023-11-22T13:38:58;4.15;;;2.13;;
63398;SDS011;49533;-34.520;150.798;2023-11-22T13:41:25;3.78;;;2.70;;
63398;SDS011;49533;-34.520;150.798;2023-11-22T13:43:52;2.72;;;2.10;;
63398;SDS011;49533;-34.520;150.798;2023-11-22T13:46:19;4.35;;;2.72;;
63398;SDS011;49533;-34.520;150.798;2023-11-22T13:48:47;2.78;;;2.15;;
63398;SDS011;49533;-34.520;150.798;2023-11-22T13:51:14;3.42;;;2.53;;
63398;SDS011;49533;-34.520;150.798;2023-11-22T13:53:41;2.40;;;2.05;;
63398;SDS011;49533;-34.520;150.798;2023-11-22T13:56:14;2.50;;;2.13;;
63398;SDS011;49533;-34.520;150.798;2023-11-22T13:58:41;3.85;;;2.30;;
63398;SDS011;49533;-34.520;150.798;2023-11-22T14:01:08;3.72;;;2.40;;
63398;SDS011;49533;-34.520;150.798;2023-11-22T14:03:42;3.67;;;2.60;;
63398;SDS011;49533;-34.520;150.798;2023-11-22T14:06:09;2.00;;;1.80;;
63398;SDS011;49533;-34.520;150.798;2023-11-22T14:08:39;3.78;;;2.25;;
63398;SDS011;49533;-34.520;150.798;2023-11-22T14:11:06;4.22;;;2.67;;
63398;SDS011;49533;-34.520;150.798;2023-11-22T14:13:33;3.50;;;2.33;;
63398;SDS011;49533;-34.520;150.798;2023-11-22T14:16:00;3.78;;;2.30;;
63398;SDS011;49533;-34.520;150.798;2023-11-22T14:18:27;4.05;;;2.67;;
63398;SDS011;49533;-34.520;150.798;2023-11-22T14:20:54;3.78;;;2.40;;
63398;SDS011;49533;-34.520;150.798;2023-11-22T14:23:22;2.72;;;2.25;;
63398;SDS011;49533;-34.520;150.798;2023-11-22T14:25:49;3.45;;;2.47;;
63398;SDS011;49533;-34.520;150.798;2023-11-22T14:28:16;2.72;;;2.40;;
63398;SDS011;49533;-34.520;150.798;2023-11-22T14:30:44;3.38;;;2.35;;
63398;SDS011;49533;-34.520;150.798;2023-11-22T14:33:11;2.58;;;2.20;;
63398;SDS011;49533;-34.520;150.798;2023-11-22T14:35:38;2.72;;;2.47;;
63398;SDS011;49533;-34.520;150.798;2023-11-22T14:38:05;3.00;;;2.60;;
63398;SDS011;49533;-34.520;150.798;2023-11-22T14:40:32;3.35;;;2.53;;
63398;SDS011;49533;-34.520;150.798;2023-11-22T14:43:02;2.75;;;2.22;;
63398;SDS011;49533;-34.520;150.798;2023-11-22T14:45:30;3.33;;;2.33;;
63398;SDS011;49533;-34.520;150.798;2023-11-22T14:47:58;2.40;;;2.17;;
63398;SDS011;49533;-34.520;150.798;2023-11-22T14:50:27;2.40;;;2.20;;
63398;SDS011;49533;-34.520;150.798;2023-11-22T14:52:54;3.15;;;2.35;;
63398;SDS011;49533;-34.520;150.798;2023-11-22T14:55:21;3.35;;;2.33;;
63398;SDS011;49533;-34.520;150.798;2023-11-22T14:57:51;3.55;;;2.35;;
63398;SDS011;49533;-34.520;150.798;2023-11-22T15:00:22;4.15;;;2.50;;
63398;SDS011;49533;-34.520;150.798;2023-11-22T15:02:50;5.78;;;2.45;;
63398;SDS011;49533;-34.520;150.798;2023-11-22T15:05:19;2.60;;;2.15;;
63398;SDS011;49533;-34.520;150.798;2023-11-22T15:07:47;5.35;;;2.50;;
63398;SDS011;49533;-34.520;150.798;2023-11-22T15:10:20;3.10;;;2.28;;
63398;SDS011;49533;-34.520;150.798;2023-11-22T15:12:48;2.90;;;2.35;;
63398;SDS011;49533;-34.520;150.798;2023-11-22T15:15:16;2.92;;;2.05;;